KB8DOA Weather Reports


Display with metric or nautical units.
time (UTC)temp
F
wind
direction
speed
MPH
gust
MPH
rain 1hr
in
rain 24hr
in
rain mn
in
humidity
%
barometer
mb
20220626171504 86 116 5.0 13.0 0.00 0.11 0.00 76 1014.4
20220626171004 86 86 6.0 16.0 0.00 0.11 0.00 77 1014.4
20220626170504 86 129 3.0 8.0 0.00 0.11 0.00 76 1014.5
20220626170003 86 154 4.0 8.0 0.00 0.11 0.00 76 1014.6
20220626165503 86 156 5.0 10.0 0.00 0.11 0.00 77 1014.7
20220626165004 86 109 5.0 10.0 0.00 0.11 0.00 76 1014.7
20220626164504 86 176 3.0 8.0 0.00 0.11 0.00 75 1014.8
20220626164004 86 110 6.0 14.0 0.00 0.11 0.00 76 1014.8
20220626163503 86 93 6.0 14.0 0.00 0.11 0.00 76 1014.7
20220626163004 86 116 5.0 13.0 0.00 0.11 0.00 76 1014.8
20220626162504 86 113 4.0 10.0 0.00 0.11 0.00 75 1014.8
20220626162004 86 90 5.0 9.0 0.00 0.11 0.00 75 1014.9
20220626161504 86 129 4.0 12.0 0.00 0.11 0.00 74 1014.9
20220626161004 86 120 4.0 12.0 0.00 0.11 0.00 75 1014.9
20220626160504 86 96 3.0 10.0 0.00 0.11 0.00 74 1015.0
20220626160003 87 143 4.0 9.0 0.00 0.11 0.00 74 1014.9
20220626155504 87 116 4.0 10.0 0.00 0.11 0.00 74 1015.0
20220626155004 87 157 2.0 8.0 0.00 0.11 0.00 75 1014.9
20220626154503 87 167 3.0 6.0 0.00 0.11 0.00 73 1015.0
20220626154004 87 126 4.0 12.0 0.00 0.11 0.00 72 1015.0
20220626153504 87 164 2.0 6.0 0.00 0.11 0.00 71 1015.0
20220626153004 88 171 2.0 6.0 0.00 0.11 0.00 72 1015.1
20220626152503 87 178 2.0 6.0 0.00 0.11 0.00 72 1015.1
20220626152004 87 163 3.0 7.0 0.00 0.11 0.00 74 1015.1
20220626151503 87 131 3.0 9.0 0.00 0.11 0.00 74 1015.2
20220626151004 86 143 1.0 7.0 0.00 0.11 0.00 74 1015.3
20220626150503 86 180 2.0 6.0 0.00 0.11 0.00 74 1015.3
20220626150004 86 173 3.0 9.0 0.00 0.11 0.00 75 1015.3
20220626145503 87 149 3.0 7.0 0.00 0.11 0.00 74 1015.4
20220626145004 86 163 2.0 7.0 0.00 0.11 0.00 74 1015.3
20220626144503 86 167 2.0 5.0 0.00 0.11 0.00 72 1015.2
20220626144004 86 160 2.0 5.0 0.00 0.11 0.00 73 1015.2
20220626143504 86 176 3.0 8.0 0.00 0.11 0.00 72 1015.3
20220626143004 86 147 2.0 6.0 0.00 0.11 0.00 72 1015.3
20220626142503 86 135 2.0 5.0 0.00 0.11 0.00 74 1015.3
20220626142004 86 182 3.0 8.0 0.00 0.11 0.00 73 1015.3
20220626141503 86 154 2.0 8.0 0.00 0.11 0.00 70 1015.3
20220626141004 86 91 2.0 8.0 0.00 0.11 0.00 69 1015.3
20220626140504 85 153 2.0 5.0 0.00 0.11 0.00 72 1015.3
20220626140003 85 149 1.0 6.0 0.00 0.11 0.00 74 1015.3
20220626135503 85 174 2.0 12.0 0.00 0.11 0.00 74 1015.3
20220626135004 85 161 2.0 7.0 0.00 0.11 0.00 73 1015.2
20220626134504 85 112 2.0 6.0 0.00 0.11 0.00 73 1015.3
20220626134004 84 132 2.0 6.0 0.00 0.11 0.00 73 1015.3
20220626133503 84 159 2.0 6.0 0.00 0.11 0.00 74 1015.3
20220626133003 84 165 3.0 9.0 0.00 0.11 0.00 74 1015.4
20220626132504 84 143 2.0 8.0 0.00 0.11 0.00 76 1015.3
20220626132004 84 110 2.0 7.0 0.00 0.11 0.00 77 1015.3
20220626131504 84 132 2.0 5.0 0.00 0.11 0.00 77 1015.3
20220626131004 84 189 2.0 5.0 0.00 0.11 0.00 78 1015.3
20220626130504 84 158 2.0 5.0 0.00 0.11 0.00 78 1015.2
20220626130004 84 132 2.0 5.0 0.00 0.11 0.00 78 1015.2
20220626125503 84 152 1.0 5.0 0.00 0.11 0.00 79 1015.2
20220626125004 85 94 2.0 3.0 0.00 0.11 0.00 78 1015.2
20220626124504 85 169 1.0 2.0 0.00 0.11 0.00 77 1015.2
20220626124004 85 179 1.0 3.0 0.00 0.11 0.00 78 1015.2
20220626123503 87 138 2.0 3.0 0.00 0.11 0.00 74 1015.1
20220626123003 87 326 0.0 1.0 0.00 0.11 0.00 74 1015.1
20220626122504 87 164 0.0 2.0 0.00 0.11 0.00 73 1015.1
20220626122004 85 93 0.0 2.0 0.00 0.11 0.00 75 1015.1
20220626121504 84 96 0.0 2.0 0.00 0.11 0.00 77 1015.0
20220626121004 83 333 0.0 1.0 0.00 0.11 0.00 79 1015.0
20220626120504 83 7 0.0 1.0 0.00 0.11 0.00 81 1015.0
20220626120003 83 347 0.0 1.0 0.00 0.11 0.00 83 1015.1
20220626115505 82 43 0.0 1.0 0.00 0.11 0.00 85 1015.1
20220626115004 81 49 0.0 1.0 0.00 0.11 0.00 87 1015.0
20220626114504 80 35 1.0 1.0 0.00 0.11 0.00 88 1015.0
20220626114004 79 37 1.0 2.0 0.00 0.11 0.00 91 1014.9
20220626113503 79 119 0.0 0.0 0.00 0.11 0.00 95 1014.8
20220626113004 78 119 0.0 0.0 0.00 0.11 0.00 95 1014.8
20220626112504 78 119 0.0 0.0 0.00 0.11 0.00 96 1014.8
20220626112004 77 119 0.0 0.0 0.00 0.11 0.00 96 1014.7
20220626111503 77 119 0.0 0.0 0.00 0.11 0.00 96 1014.7
20220626111003 76 119 0.0 0.0 0.00 0.11 0.00 96 1014.8
20220626110504 76 119 0.0 0.0 0.00 0.11 0.00 96 1014.7
20220626110003 76 119 0.0 0.0 0.00 0.11 0.00 96 1014.6
20220626105503 76 119 0.0 0.0 0.00 0.11 0.00 96 1014.6
20220626105004 76 119 0.0 1.0 0.00 0.11 0.00 96 1014.6
20220626104504 76 131 0.0 1.0 0.00 0.11 0.00 96 1014.7
20220626104004 76 319 0.0 0.0 0.00 0.11 0.00 96 1014.7
20220626103503 76 319 0.0 1.0 0.00 0.11 0.00 96 1014.6
20220626103003 76 311 0.0 1.0 0.00 0.11 0.00 96 1014.7
20220626102503 76 319 0.0 0.0 0.00 0.11 0.00 96 1014.5
20220626102004 76 319 0.0 1.0 0.00 0.11 0.00 96 1014.5
20220626101503 76 313 1.0 2.0 0.00 0.11 0.00 96 1014.5
20220626101004 76 282 0.0 2.0 0.00 0.11 0.00 96 1014.5
20220626100504 76 315 0.0 1.0 0.00 0.11 0.00 96 1014.5
20220626100004 76 160 0.0 0.0 0.00 0.11 0.00 96 1014.4
20220626095504 76 160 0.0 0.0 0.00 0.11 0.00 95 1014.4
20220626095004 76 160 0.0 1.0 0.00 0.11 0.00 95 1014.4
20220626094504 77 158 1.0 1.0 0.00 0.11 0.00 96 1014.5
20220626094004 77 144 0.0 1.0 0.00 0.11 0.00 96 1014.5
20220626093503 77 98 0.0 1.0 0.00 0.11 0.00 96 1014.5
20220626093004 77 223 0.0 0.0 0.00 0.11 0.00 95 1014.4
20220626092504 77 223 0.0 0.0 0.00 0.11 0.00 95 1014.5
20220626092004 77 223 0.0 0.0 0.00 0.11 0.00 95 1014.4
20220626091504 77 203 0.0 1.0 0.00 0.11 0.00 94 1014.4
20220626091003 77 167 0.0 1.0 0.00 0.11 0.00 94 1014.5
20220626090503 77 157 0.0 1.0 0.00 0.11 0.00 94 1014.5
20220626090003 77 304 0.0 0.0 0.00 0.11 0.00 94 1014.5
20220626085504 77 304 0.0 1.0 0.00 0.11 0.00 94 1014.6
20220626085004 77 353 1.0 2.0 0.00 0.11 0.00 94 1014.6
20220626084503 77 5 1.0 2.0 0.00 0.11 0.00 94 1014.5
20220626084004 77 165 0.0 1.0 0.00 0.11 0.00 94 1014.4
20220626083504 77 102 1.0 1.0 0.00 0.11 0.00 94 1014.5
20220626083004 77 18 0.0 0.0 0.00 0.11 0.00 93 1014.4
20220626082504 78 18 0.0 1.0 0.00 0.11 0.00 93 1014.5
20220626082003 78 16 1.0 1.0 0.00 0.11 0.00 93 1014.4
20220626081504 78 51 0.0 1.0 0.00 0.11 0.00 93 1014.4
20220626081004 78 36 1.0 1.0 0.00 0.11 0.00 93 1014.4
20220626080503 78 0 0.0 0.0 0.00 0.11 0.00 92 1014.4
20220626080003 78 0 0.0 0.0 0.00 0.11 0.00 92 1014.5
20220626075503 78 0 0.0 0.0 0.00 0.11 0.00 92 1014.6
20220626075004 78 0 0.0 3.0 0.00 0.11 0.00 92 1014.7
20220626074503 78 1 2.0 3.0 0.00 0.11 0.00 92 1014.8
20220626074004 77 358 2.0 3.0 0.00 0.11 0.00 93 1014.9
20220626073503 77 359 2.0 3.0 0.00 0.11 0.00 94 1014.9
20220626073005 77 13 1.0 2.0 0.00 0.11 0.00 94 1014.8
20220626072504 77 349 0.0 0.0 0.00 0.11 0.00 94 1014.7
20220626072004 77 349 0.0 0.0 0.00 0.11 0.00 94 1014.7
20220626071504 77 349 0.0 0.0 0.00 0.11 0.00 94 1014.8
20220626071003 77 349 0.0 0.0 0.00 0.11 0.00 94 1014.8
20220626070505 77 349 0.0 0.0 0.00 0.11 0.00 94 1014.8
20220626070003 77 349 0.0 0.0 0.00 0.11 0.00 94 1014.8
20220626065503 77 349 0.0 1.0 0.00 0.11 0.00 93 1014.9
20220626065004 77 346 0.0 1.0 0.00 0.11 0.00 94 1014.9
20220626064504 77 107 0.0 1.0 0.00 0.11 0.00 94 1014.8
20220626064006 77 119 0.0 0.0 0.00 0.11 0.00 94 1014.9
20220626063504 77 119 0.0 0.0 0.00 0.11 0.00 94 1014.9
20220626063003 77 119 0.0 0.0 0.00 0.11 0.00 94 1014.9
20220626062503 77 119 0.0 0.0 0.00 0.11 0.00 94 1015.0
20220626062005 77 119 0.0 0.0 0.00 0.11 0.00 94 1015.0
20220626061503 77 119 0.0 0.0 0.00 0.11 0.00 94 1015.0
20220626061004 77 119 0.0 0.0 0.00 0.11 0.00 94 1015.1
20220626060503 77 119 0.0 1.0 0.00 0.11 0.00 94 1015.2
20220626060004 77 118 0.0 1.0 0.00 0.11 0.00 94 1015.2
20220626055504 77 117 0.0 1.0 0.00 0.11 0.00 94 1015.2
20220626055003 77 152 0.0 0.0 0.00 0.11 0.00 94 1015.1
20220626054503 77 152 0.0 1.0 0.00 0.11 0.00 94 1015.1
20220626054004 77 127 0.0 0.0 0.00 0.11 0.00 94 1015.1
20220626053504 78 35 0.0 0.0 0.00 0.11 0.00 94 1015.1
20220626053004 78 35 0.0 1.0 0.00 0.11 0.00 94 1015.2
20220626052504 78 95 0.0 0.0 0.00 0.11 0.00 94 1015.3
20220626052004 78 95 0.0 0.0 0.00 0.11 0.00 94 1015.3
20220626051504 77 95 0.0 0.0 0.00 0.11 0.00 94 1015.4
20220626051004 77 95 0.0 0.0 0.00 0.11 0.00 93 1015.5
20220626050503 77 95 0.0 0.0 0.00 0.11 0.00 93 1015.6
20220626050003 77 95 0.0 0.0 0.00 0.11 0.00 94 1015.7
20220626045504 78 95 0.0 0.0 0.00 0.11 0.00 94 1015.8
20220626045003 78 95 0.0 0.0 0.00 0.11 0.00 94 1015.8
20220626044503 78 95 0.0 0.0 0.00 0.11 0.00 94 1015.8
20220626044004 78 95 0.0 0.0 0.00 0.11 0.00 94 1015.7
20220626043503 78 95 0.0 0.0 0.00 0.11 0.00 94 1015.7
20220626043003 77 95 0.0 0.0 0.00 0.11 0.00 94 1015.7
20220626042504 78 95 0.0 1.0 0.00 0.11 0.00 94 1015.6
20220626042003 78 78 0.0 1.0 0.00 0.11 0.00 94 1015.6
20220626041504 77 348 0.0 1.0 0.00 0.11 0.00 93 1015.5
20220626041004 77 328 0.0 0.0 0.00 0.11 0.00 93 1015.5
20220626040504 78 328 0.0 0.0 0.00 0.11 0.00 93 1015.5
20220626040004 78 328 0.0 0.0 0.00 0.11 0.00 93 1015.6
20220626035504 78 328 0.0 1.0 0.00 0.11 0.11 93 1015.6
20220626035003 78 328 0.0 2.0 0.00 0.11 0.11 92 1015.8
20220626034504 78 268 0.0 2.0 0.00 0.11 0.11 92 1015.9
20220626034004 78 298 0.0 1.0 0.00 0.11 0.11 92 1015.9
20220626033504 78 337 0.0 2.0 0.00 0.11 0.11 92 1016.0
20220626033003 78 23 0.0 1.0 0.00 0.11 0.11 91 1016.0
20220626032504 78 43 0.0 1.0 0.00 0.11 0.11 91 1015.9
20220626032004 78 55 1.0 1.0 0.00 0.11 0.11 91 1016.0
20220626031503 78 58 0.0 1.0 0.00 0.11 0.11 91 1016.0
20220626031004 78 51 1.0 2.0 0.00 0.11 0.11 91 1016.1
20220626030504 78 25 1.0 2.0 0.00 0.11 0.11 91 1016.1
20220626030003 78 28 1.0 2.0 0.00 0.11 0.11 91 1016.1
20220626025504 78 15 1.0 2.0 0.00 0.11 0.11 91 1016.1
20220626025004 78 54 0.0 2.0 0.00 0.11 0.11 91 1016.1
20220626024504 79 4 0.0 2.0 0.00 0.11 0.11 90 1016.1
20220626024004 79 37 1.0 2.0 0.00 0.11 0.11 90 1016.1
20220626023503 79 62 1.0 2.0 0.00 0.11 0.11 90 1016.1
20220626023006 79 79 1.0 2.0 0.00 0.11 0.11 90 1016.2
20220626022503 79 353 0.0 1.0 0.00 0.11 0.11 90 1016.1
20220626022003 79 330 0.0 1.0 0.00 0.11 0.11 90 1015.9
20220626021504 79 329 0.0 0.0 0.00 0.11 0.11 89 1015.9
20220626021004 79 329 0.0 0.0 0.00 0.11 0.11 89 1015.8
20220626020504 79 329 0.0 1.0 0.00 0.11 0.11 89 1015.7
20220626020003 79 316 0.0 1.0 0.00 0.11 0.11 89 1015.7
20220626015504 79 336 0.0 1.0 0.00 0.11 0.11 90 1015.7
20220626015004 79 3 0.0 1.0 0.00 0.11 0.11 89 1015.7
20220626014504 79 346 0.0 2.0 0.00 0.11 0.11 89 1015.5
20220626014004 79 327 0.0 1.0 0.00 0.11 0.11 89 1015.5
20220626013504 79 315 0.0 1.0 0.00 0.11 0.11 89 1015.4
20220626013004 79 155 0.0 1.0 0.00 0.11 0.11 89 1015.3
20220626012504 79 173 0.0 1.0 0.00 0.11 0.11 89 1015.2
20220626012004 79 161 0.0 1.0 0.00 0.11 0.11 88 1015.3
20220626011504 79 331 0.0 1.0 0.00 0.11 0.11 88 1015.2
20220626011004 79 334 0.0 1.0 0.00 0.11 0.11 88 1015.1
20220626010504 79 310 0.0 1.0 0.00 0.11 0.11 88 1015.1
20220626010003 79 132 0.0 1.0 0.00 0.11 0.11 88 1015.0
20220626005503 79 297 0.0 0.0 0.00 0.11 0.11 87 1015.0
20220626005004 79 297 0.0 1.0 0.00 0.11 0.11 87 1015.0
20220626004504 79 164 0.0 1.0 0.00 0.11 0.11 87 1015.1
20220626004003 79 330 0.0 2.0 0.00 0.11 0.11 87 1015.0
20220626003504 79 311 1.0 2.0 0.00 0.11 0.11 87 1014.9
20220626003003 79 307 0.0 2.0 0.00 0.11 0.11 88 1014.9
20220626002503 79 342 0.0 2.0 0.00 0.11 0.11 88 1014.9
20220626002004 79 134 0.0 1.0 0.00 0.11 0.11 88 1014.8
20220626001504 79 316 1.0 2.0 0.00 0.11 0.11 88 1014.6
20220626001004 79 287 0.0 1.0 0.00 0.11 0.11 89 1014.6
20220626000504 79 32 0.0 2.0 0.00 0.11 0.11 89 1014.5
20220626000003 79 255 0.0 2.0 0.00 0.11 0.11 88 1014.4
20220625235503 79 173 1.0 2.0 0.00 0.11 0.11 88 1014.3
20220625235004 79 162 0.0 2.0 0.00 0.11 0.11 88 1014.3
20220625234504 80 206 0.0 2.0 0.00 0.11 0.11 88 1014.3
20220625234004 80 313 0.0 2.0 0.00 0.11 0.11 88 1014.2
20220625233504 80 237 0.0 1.0 0.00 0.11 0.11 88 1014.2
20220625233003 80 179 1.0 3.0 0.00 0.11 0.11 89 1014.1
20220625232504 80 190 0.0 1.0 0.00 0.11 0.11 88 1014.1
20220625232004 80 195 0.0 2.0 0.00 0.11 0.11 88 1014.2
20220625231504 80 143 0.0 2.0 0.00 0.11 0.11 88 1014.2
20220625231003 80 304 0.0 2.0 0.00 0.11 0.11 87 1014.0
20220625230504 80 150 1.0 2.0 0.00 0.11 0.11 87 1013.9
20220625230004 80 171 0.0 0.0 0.00 0.11 0.11 87 1014.0
20220625225504 80 162 0.0 1.0 0.00 0.11 0.11 86 1013.9
20220625225004 80 90 0.0 1.0 0.00 0.11 0.11 86 1013.9
20220625224504 80 327 1.0 2.0 0.00 0.11 0.11 87 1013.9
20220625224003 80 144 1.0 2.0 0.00 0.11 0.11 87 1013.8
20220625223503 80 162 1.0 2.0 0.00 0.11 0.11 87 1013.7
20220625223003 80 146 0.0 1.0 0.00 0.11 0.11 86 1013.7
20220625222503 80 89 1.0 2.0 0.00 0.11 0.11 86 1013.7
20220625222004 80 195 0.0 2.0 0.00 0.11 0.11 87 1013.6
20220625221504 80 115 0.0 1.0 0.00 0.11 0.11 87 1013.6
20220625221004 80 56 0.0 2.0 0.00 0.11 0.11 88 1013.6
20220625220503 80 202 0.0 2.0 0.00 0.11 0.11 88 1013.5
20220625220004 80 298 0.0 2.0 0.00 0.11 0.11 89 1013.5
20220625215503 80 160 0.0 2.0 0.00 0.11 0.11 89 1013.6
20220625215004 79 345 0.0 2.0 0.00 0.11 0.11 89 1013.5
20220625214504 79 162 1.0 2.0 0.00 0.11 0.11 90 1013.5
20220625214004 79 170 1.0 2.0 0.00 0.11 0.11 90 1013.5
20220625213503 79 179 1.0 3.0 0.00 0.11 0.11 89 1013.6
20220625213005 79 298 1.0 5.0 0.00 0.11 0.11 89 1013.7
20220625212504 79 323 2.0 5.0 0.00 0.11 0.11 89 1013.7
20220625212004 79 214 1.0 3.0 0.00 0.11 0.11 90 1013.9
20220625211504 78 280 1.0 6.0 0.00 0.11 0.11 90 1014.0
20220625211004 78 116 0.0 5.0 0.00 0.11 0.11 91 1014.1
20220625210504 78 298 2.0 3.0 0.00 0.11 0.11 91 1014.2
20220625210004 78 306 1.0 3.0 0.00 0.11 0.11 92 1014.1
20220625205504 77 221 1.0 3.0 0.00 0.11 0.11 92 1014.2
20220625205004 77 257 1.0 8.0 0.00 0.11 0.11 92 1014.3
20220625204504 77 235 1.0 6.0 0.00 0.11 0.11 93 1014.4
20220625204004 76 268 1.0 7.0 0.00 0.11 0.11 93 1014.5
20220625203503 76 300 1.0 5.0 0.00 0.11 0.11 93 1014.6
20220625203004 76 264 1.0 5.0 0.00 0.11 0.11 94 1014.5
20220625202504 76 309 1.0 3.0 0.00 0.11 0.11 92 1014.4
20220625202004 76 29 0.0 1.0 0.00 0.11 0.11 93 1014.4
20220625201503 76 131 0.0 1.0 0.01 0.11 0.11 93 1014.4
20220625201004 75 174 1.0 1.0 0.03 0.11 0.11 92 1014.3
20220625200504 75 122 1.0 2.0 0.06 0.11 0.11 91 1014.1
20220625200004 75 163 1.0 3.0 0.08 0.11 0.11 92 1014.3
20220625195504 75 300 1.0 5.0 0.09 0.11 0.11 92 1014.2
20220625195004 75 23 1.0 3.0 0.10 0.11 0.11 91 1014.2
20220625194504 75 247 2.0 6.0 0.11 0.11 0.11 92 1014.2
20220625194004 76 307 1.0 5.0 0.10 0.10 0.10 91 1014.2
20220625193504 76 325 2.0 6.0 0.10 0.10 0.10 90 1013.9
20220625193004 77 12 4.0 9.0 0.10 0.10 0.10 90 1014.0
20220625192504 79 5 3.0 9.0 0.10 0.10 0.10 92 1014.1
20220625192004 81 352 6.0 12.0 0.10 0.10 0.10 91 1014.1
20220625191503 82 11 5.0 9.0 0.10 0.10 0.10 86 1014.1
20220625191003 84 357 5.0 9.0 0.08 0.08 0.08 83 1014.0
20220625190504 85 73 3.0 6.0 0.04 0.04 0.04 81 1014.2
20220625190003 85 64 3.0 7.0 0.03 0.03 0.03 80 1014.2
20220625185504 85 113 4.0 9.0 0.02 0.02 0.02 78 1013.8
20220625185004 86 173 3.0 12.0 0.00 0.00 0.00 76 1013.2
20220625184504 86 176 3.0 10.0 0.00 0.00 0.00 76 1013.4
20220625184003 87 158 5.0 10.0 0.00 0.00 0.00 75 1013.6
20220625183504 87 125 4.0 10.0 0.00 0.00 0.00 75 1013.5
20220625183003 88 154 4.0 13.0 0.00 0.00 0.00 74 1013.5
20220625182504 88 123 5.0 12.0 0.00 0.00 0.00 74 1013.4
20220625182004 87 109 4.0 9.0 0.00 0.00 0.00 75 1013.2
20220625181504 87 128 4.0 12.0 0.00 0.00 0.00 74 1013.4
20220625181004 88 165 3.0 8.0 0.00 0.00 0.00 74 1013.4
20220625180503 87 112 4.0 8.0 0.00 0.00 0.00 75 1013.5
20220625180004 87 114 3.0 9.0 0.00 0.00 0.00 75 1013.6
20220625175503 87 174 4.0 8.0 0.00 0.00 0.00 75 1013.6
20220625175004 88 173 3.0 7.0 0.00 0.00 0.00 75 1013.7
20220625174504 88 113 3.0 9.0 0.00 0.00 0.00 75 1013.8
20220625174003 88 134 3.0 9.0 0.00 0.00 0.00 75 1013.9
20220625173504 87 154 3.0 7.0 0.00 0.00 0.00 75 1013.8
20220625173004 87 127 3.0 6.0 0.00 0.00 0.00 74 1013.9
20220625172504 87 171 5.0 8.0 0.00 0.00 0.00 75 1014.0
20220625172004 87 126 3.0 8.0 0.00 0.00 0.00 76 1014.1